Lodz, Poland

11:01 AM CET on March 25, 2017 (GMT +0100)
Michała Drzymały | | Change Station

Elev 587 ft 51.73 °N, 19.43 °E | Updated 12 minutes ago

Clear
Clear
45.3 °F
Feels Like 43 °F
N
4.3
Wind Variable Wind from WSW
Gusts 9.3 mph

Today
High -- | Low -- °F
--% Chance of Precip.
Yesterday
High -- | Low -- °F
Precip. -- in
Pressure 30.27 in
Visibility -9999.0 miles
Clouds
Windchill 43 °F
Dew Point 22 °F
Humidity 39%
Rainfall 0.00 in
Snow Depth Not available.
5:33 AM 6:04 PM
Waning Crescent, 9% visible
METAR EPLL 250930Z 28014KT CAVOK 07/M09 Q1025
Pressure 30.27 in
Visibility -9999.0 miles
Clouds
Windchill 43 °F
Dew Point 22 °F
Humidity 39%
Rainfall 0.00 in
Snow Depth Not available.
5:33 AM 6:04 PM
Waning Crescent, 9% visible
METAR EPLL 250930Z 28014KT CAVOK 07/M09 Q1025

Get Severe Weather Alerts

Thanks for signing up!

Be on the lookout for a verification email in your inbox.

You'll start receiving the daily forecast at 8 AM.

×

10-Day Weather Forecast

×

Almanac

Astronomy

Mar. 25, 2017 Rise Set
Actual Time
Civil Twilight
Nautical Twilight
Astronomical Twilight
Moon
Length of Visible Light
Length of Day
Tomorrow will be .
, % of the Moon is Illuminated

Today's Extremes

Country Highs Country Lows

Community

WunderPhotos

Upload Photos

1,962,540 photos uploaded!

WunderBlog® & News

Nearby

Air Quality

  Air Quality AQ Index Pollutant
Not available.

Snow Depth

Station Depth Elevation

Earthquake Activity

City Distance Mag. Time & Date
Minimum magnitude displayed is 2.5.

Earthquake Activity

City Distance Mag. Time & Date
Minimum magnitude displayed is 2.5.

Coastal Water Temperatures

Place Temperature

Stations

Nearby Weather Stations

Station Location Temp. Windchill Dew Point Humidity Wind Precip. Elev Updated Type